sensor_id;sensor_type;location;lat;lon;timestamp;P1;durP1;ratioP1;P2;durP2;ratioP2
57295;SDS011;43146;50.976;18.216;2023-04-03T00:00:32;15.90;;;5.30;;
57295;SDS011;43146;50.976;18.216;2023-04-03T00:02:58;14.80;;;4.80;;
57295;SDS011;43146;50.976;18.216;2023-04-03T00:05:23;13.70;;;4.90;;
57295;SDS011;43146;50.976;18.216;2023-04-03T00:07:49;13.70;;;4.60;;
57295;SDS011;43146;50.976;18.216;2023-04-03T00:10:15;14.10;;;4.70;;
57295;SDS011;43146;50.976;18.216;2023-04-03T00:12:41;15.30;;;4.80;;
57295;SDS011;43146;50.976;18.216;2023-04-03T00:15:07;14.50;;;4.20;;
57295;SDS011;43146;50.976;18.216;2023-04-03T00:17:33;17.20;;;4.70;;
57295;SDS011;43146;50.976;18.216;2023-04-03T00:19:59;15.50;;;5.50;;
57295;SDS011;43146;50.976;18.216;2023-04-03T00:22:25;16.60;;;5.40;;
57295;SDS011;43146;50.976;18.216;2023-04-03T00:24:52;14.00;;;4.40;;
57295;SDS011;43146;50.976;18.216;2023-04-03T00:27:17;14.60;;;4.50;;
57295;SDS011;43146;50.976;18.216;2023-04-03T00:29:43;15.70;;;3.90;;
57295;SDS011;43146;50.976;18.216;2023-04-03T00:32:09;11.30;;;3.60;;
57295;SDS011;43146;50.976;18.216;2023-04-03T00:34:35;14.40;;;4.60;;
57295;SDS011;43146;50.976;18.216;2023-04-03T00:37:01;15.00;;;4.50;;
57295;SDS011;43146;50.976;18.216;2023-04-03T00:39:27;14.50;;;4.40;;
57295;SDS011;43146;50.976;18.216;2023-04-03T00:41:52;13.90;;;3.50;;
57295;SDS011;43146;50.976;18.216;2023-04-03T00:47:05;12.90;;;4.60;;
57295;SDS011;43146;50.976;18.216;2023-04-03T00:49:32;14.10;;;4.10;;
57295;SDS011;43146;50.976;18.216;2023-04-03T00:51:58;14.80;;;4.00;;
57295;SDS011;43146;50.976;18.216;2023-04-03T00:54:25;14.70;;;4.80;;
57295;SDS011;43146;50.976;18.216;2023-04-03T00:56:51;14.90;;;4.70;;
57295;SDS011;43146;50.976;18.216;2023-04-03T00:59:20;13.00;;;4.70;;
57295;SDS011;43146;50.976;18.216;2023-04-03T01:01:50;13.90;;;4.20;;
57295;SDS011;43146;50.976;18.216;2023-04-03T01:06:54;14.40;;;4.40;;
57295;SDS011;43146;50.976;18.216;2023-04-03T01:09:21;16.90;;;4.80;;
57295;SDS011;43146;50.976;18.216;2023-04-03T01:11:47;11.60;;;4.00;;
57295;SDS011;43146;50.976;18.216;2023-04-03T01:14:13;10.20;;;3.40;;
57295;SDS011;43146;50.976;18.216;2023-04-03T01:16:39;17.20;;;4.90;;
57295;SDS011;43146;50.976;18.216;2023-04-03T01:19:06;15.30;;;5.30;;
57295;SDS011;43146;50.976;18.216;2023-04-03T01:26:57;16.00;;;5.60;;
57295;SDS011;43146;50.976;18.216;2023-04-03T01:29:24;15.00;;;4.90;;
57295;SDS011;43146;50.976;18.216;2023-04-03T01:34:19;19.50;;;6.40;;
57295;SDS011;43146;50.976;18.216;2023-04-03T01:36:45;17.10;;;5.60;;
57295;SDS011;43146;50.976;18.216;2023-04-03T01:39:11;19.30;;;6.80;;
57295;SDS011;43146;50.976;18.216;2023-04-03T01:41:37;18.20;;;6.70;;
57295;SDS011;43146;50.976;18.216;2023-04-03T01:44:03;20.30;;;8.00;;
57295;SDS011;43146;50.976;18.216;2023-04-03T01:46:29;21.40;;;7.70;;
57295;SDS011;43146;50.976;18.216;2023-04-03T01:48:55;20.80;;;7.40;;
57295;SDS011;43146;50.976;18.216;2023-04-03T01:51:21;22.30;;;7.40;;
57295;SDS011;43146;50.976;18.216;2023-04-03T01:53:47;19.70;;;7.80;;
57295;SDS011;43146;50.976;18.216;2023-04-03T01:56:13;19.70;;;7.80;;
57295;SDS011;43146;50.976;18.216;2023-04-03T01:58:38;20.20;;;8.10;;
57295;SDS011;43146;50.976;18.216;2023-04-03T02:01:04;20.70;;;8.60;;
57295;SDS011;43146;50.976;18.216;2023-04-03T02:03:31;18.30;;;7.70;;
57295;SDS011;43146;50.976;18.216;2023-04-03T02:05:57;21.60;;;8.70;;
57295;SDS011;43146;50.976;18.216;2023-04-03T02:08:22;21.00;;;7.80;;
57295;SDS011;43146;50.976;18.216;2023-04-03T02:10:48;24.30;;;9.20;;
57295;SDS011;43146;50.976;18.216;2023-04-03T02:13:15;19.70;;;8.70;;
57295;SDS011;43146;50.976;18.216;2023-04-03T02:15:41;22.70;;;9.80;;
57295;SDS011;43146;50.976;18.216;2023-04-03T02:18:07;21.90;;;8.60;;
57295;SDS011;43146;50.976;18.216;2023-04-03T02:20:33;24.00;;;8.90;;
57295;SDS011;43146;50.976;18.216;2023-04-03T02:22:59;18.70;;;8.00;;
57295;SDS011;43146;50.976;18.216;2023-04-03T02:25:25;22.70;;;8.20;;
57295;SDS011;43146;50.976;18.216;2023-04-03T02:27:51;18.20;;;8.30;;
57295;SDS011;43146;50.976;18.216;2023-04-03T02:30:17;26.20;;;8.50;;
57295;SDS011;43146;50.976;18.216;2023-04-03T02:32:43;24.80;;;8.80;;
57295;SDS011;43146;50.976;18.216;2023-04-03T02:35:09;23.30;;;9.60;;
57295;SDS011;43146;50.976;18.216;2023-04-03T02:37:36;29.40;;;9.40;;
57295;SDS011;43146;50.976;18.216;2023-04-03T02:40:03;22.20;;;8.90;;
57295;SDS011;43146;50.976;18.216;2023-04-03T02:42:29;20.50;;;8.90;;
57295;SDS011;43146;50.976;18.216;2023-04-03T02:44:55;24.40;;;9.50;;
57295;SDS011;43146;50.976;18.216;2023-04-03T02:47:21;21.50;;;9.40;;
57295;SDS011;43146;50.976;18.216;2023-04-03T02:49:48;20.30;;;9.60;;
57295;SDS011;43146;50.976;18.216;2023-04-03T02:52:14;24.10;;;10.60;;
57295;SDS011;43146;50.976;18.216;2023-04-03T02:54:40;24.40;;;10.50;;
57295;SDS011;43146;50.976;18.216;2023-04-03T02:57:06;21.10;;;10.10;;
57295;SDS011;43146;50.976;18.216;2023-04-03T02:59:35;22.40;;;9.50;;
57295;SDS011;43146;50.976;18.216;2023-04-03T03:02:07;22.00;;;9.30;;
57295;SDS011;43146;50.976;18.216;2023-04-03T03:04:33;21.40;;;9.20;;
57295;SDS011;43146;50.976;18.216;2023-04-03T03:06:59;26.00;;;9.60;;
57295;SDS011;43146;50.976;18.216;2023-04-03T03:09:25;24.30;;;9.40;;
57295;SDS011;43146;50.976;18.216;2023-04-03T03:11:51;20.30;;;8.70;;
57295;SDS011;43146;50.976;18.216;2023-04-03T03:14:17;20.30;;;8.40;;
57295;SDS011;43146;50.976;18.216;2023-04-03T03:16:43;22.40;;;8.00;;
57295;SDS011;43146;50.976;18.216;2023-04-03T03:19:09;20.00;;;8.20;;
57295;SDS011;43146;50.976;18.216;2023-04-03T03:21:35;22.80;;;8.60;;
57295;SDS011;43146;50.976;18.216;2023-04-03T03:24:01;21.70;;;8.40;;
57295;SDS011;43146;50.976;18.216;2023-04-03T03:26:26;19.60;;;7.60;;
57295;SDS011;43146;50.976;18.216;2023-04-03T03:28:52;21.90;;;7.90;;
57295;SDS011;43146;50.976;18.216;2023-04-03T03:31:18;20.20;;;8.30;;
57295;SDS011;43146;50.976;18.216;2023-04-03T03:33:43;20.90;;;9.20;;
57295;SDS011;43146;50.976;18.216;2023-04-03T03:36:09;21.50;;;8.60;;
57295;SDS011;43146;50.976;18.216;2023-04-03T03:38:36;18.10;;;8.50;;
57295;SDS011;43146;50.976;18.216;2023-04-03T03:41:02;21.20;;;9.10;;
57295;SDS011;43146;50.976;18.216;2023-04-03T03:43:27;19.90;;;8.70;;
57295;SDS011;43146;50.976;18.216;2023-04-03T03:45:54;22.50;;;8.40;;
57295;SDS011;43146;50.976;18.216;2023-04-03T03:48:20;21.90;;;7.90;;
57295;SDS011;43146;50.976;18.216;2023-04-03T03:50:46;22.40;;;8.70;;
57295;SDS011;43146;50.976;18.216;2023-04-03T03:53:13;20.60;;;8.70;;
57295;SDS011;43146;50.976;18.216;2023-04-03T03:55:38;22.40;;;7.90;;
57295;SDS011;43146;50.976;18.216;2023-04-03T03:58:04;18.40;;;8.00;;
57295;SDS011;43146;50.976;18.216;2023-04-03T04:00:30;19.20;;;8.10;;
57295;SDS011;43146;50.976;18.216;2023-04-03T04:02:55;23.00;;;8.70;;
57295;SDS011;43146;50.976;18.216;2023-04-03T04:05:21;20.00;;;8.70;;
57295;SDS011;43146;50.976;18.216;2023-04-03T04:07:47;22.50;;;8.80;;
57295;SDS011;43146;50.976;18.216;2023-04-03T04:10:13;23.60;;;8.50;;
57295;SDS011;43146;50.976;18.216;2023-04-03T04:12:39;21.20;;;9.00;;
57295;SDS011;43146;50.976;18.216;2023-04-03T04:15:05;21.30;;;9.40;;
57295;SDS011;43146;50.976;18.216;2023-04-03T04:17:31;20.70;;;8.80;;
57295;SDS011;43146;50.976;18.216;2023-04-03T04:19:57;23.40;;;9.10;;
57295;SDS011;43146;50.976;18.216;2023-04-03T04:22:22;19.10;;;8.90;;
57295;SDS011;43146;50.976;18.216;2023-04-03T04:24:48;23.50;;;9.00;;
57295;SDS011;43146;50.976;18.216;2023-04-03T04:27:14;23.50;;;9.30;;
57295;SDS011;43146;50.976;18.216;2023-04-03T04:29:41;20.60;;;8.50;;
57295;SDS011;43146;50.976;18.216;2023-04-03T04:32:07;21.20;;;9.10;;
57295;SDS011;43146;50.976;18.216;2023-04-03T04:34:34;22.60;;;9.20;;
57295;SDS011;43146;50.976;18.216;2023-04-03T04:36:59;22.20;;;10.10;;
57295;SDS011;43146;50.976;18.216;2023-04-03T04:39:25;24.40;;;9.80;;
57295;SDS011;43146;50.976;18.216;2023-04-03T04:41:51;21.20;;;9.10;;
57295;SDS011;43146;50.976;18.216;2023-04-03T04:44:17;19.10;;;8.90;;
57295;SDS011;43146;50.976;18.216;2023-04-03T04:46:43;25.00;;;9.50;;
57295;SDS011;43146;50.976;18.216;2023-04-03T04:49:08;22.60;;;9.00;;
57295;SDS011;43146;50.976;18.216;2023-04-03T04:51:34;19.70;;;9.50;;
57295;SDS011;43146;50.976;18.216;2023-04-03T04:54:00;23.70;;;9.60;;
57295;SDS011;43146;50.976;18.216;2023-04-03T04:56:25;20.50;;;9.50;;
57295;SDS011;43146;50.976;18.216;2023-04-03T04:58:51;23.00;;;10.60;;
57295;SDS011;43146;50.976;18.216;2023-04-03T05:01:17;21.90;;;9.40;;
57295;SDS011;43146;50.976;18.216;2023-04-03T05:03:44;27.20;;;11.40;;
57295;SDS011;43146;50.976;18.216;2023-04-03T05:06:10;22.30;;;9.30;;
57295;SDS011;43146;50.976;18.216;2023-04-03T05:08:35;20.70;;;9.10;;
57295;SDS011;43146;50.976;18.216;2023-04-03T05:11:01;19.40;;;9.50;;
57295;SDS011;43146;50.976;18.216;2023-04-03T05:13:27;22.40;;;9.00;;
57295;SDS011;43146;50.976;18.216;2023-04-03T05:15:52;20.90;;;8.50;;
57295;SDS011;43146;50.976;18.216;2023-04-03T05:18:18;20.70;;;9.50;;
57295;SDS011;43146;50.976;18.216;2023-04-03T05:20:43;21.20;;;8.90;;
57295;SDS011;43146;50.976;18.216;2023-04-03T05:23:09;22.10;;;9.70;;
57295;SDS011;43146;50.976;18.216;2023-04-03T05:25:39;23.10;;;9.90;;
57295;SDS011;43146;50.976;18.216;2023-04-03T05:28:05;20.80;;;10.10;;
57295;SDS011;43146;50.976;18.216;2023-04-03T05:30:32;28.10;;;11.00;;
57295;SDS011;43146;50.976;18.216;2023-04-03T05:32:58;21.90;;;9.90;;
57295;SDS011;43146;50.976;18.216;2023-04-03T05:35:24;25.90;;;10.10;;
57295;SDS011;43146;50.976;18.216;2023-04-03T05:37:50;23.30;;;9.90;;
57295;SDS011;43146;50.976;18.216;2023-04-03T05:40:16;20.70;;;10.00;;
57295;SDS011;43146;50.976;18.216;2023-04-03T05:42:44;21.10;;;9.90;;
57295;SDS011;43146;50.976;18.216;2023-04-03T05:45:09;24.90;;;11.10;;
57295;SDS011;43146;50.976;18.216;2023-04-03T05:47:35;22.80;;;10.90;;
57295;SDS011;43146;50.976;18.216;2023-04-03T05:50:01;24.00;;;11.80;;
57295;SDS011;43146;50.976;18.216;2023-04-03T05:52:37;24.50;;;10.10;;
57295;SDS011;43146;50.976;18.216;2023-04-03T05:55:05;24.30;;;10.40;;
57295;SDS011;43146;50.976;18.216;2023-04-03T05:57:31;27.50;;;12.10;;
57295;SDS011;43146;50.976;18.216;2023-04-03T05:59:57;26.00;;;11.70;;
57295;SDS011;43146;50.976;18.216;2023-04-03T06:02:23;40.30;;;17.30;;
57295;SDS011;43146;50.976;18.216;2023-04-03T06:04:50;29.70;;;11.50;;
57295;SDS011;43146;50.976;18.216;2023-04-03T06:07:17;21.70;;;8.70;;
57295;SDS011;43146;50.976;18.216;2023-04-03T06:09:46;25.70;;;10.40;;
57295;SDS011;43146;50.976;18.216;2023-04-03T06:12:12;22.60;;;9.10;;
57295;SDS011;43146;50.976;18.216;2023-04-03T06:14:38;18.40;;;8.60;;
57295;SDS011;43146;50.976;18.216;2023-04-03T06:17:04;17.00;;;7.40;;
57295;SDS011;43146;50.976;18.216;2023-04-03T06:19:31;20.50;;;8.20;;
57295;SDS011;43146;50.976;18.216;2023-04-03T06:21:57;17.80;;;8.00;;
57295;SDS011;43146;50.976;18.216;2023-04-03T06:24:23;19.30;;;7.90;;
57295;SDS011;43146;50.976;18.216;2023-04-03T06:26:50;19.50;;;7.50;;
57295;SDS011;43146;50.976;18.216;2023-04-03T06:29:16;19.60;;;7.30;;
57295;SDS011;43146;50.976;18.216;2023-04-03T06:31:43;19.10;;;8.10;;
57295;SDS011;43146;50.976;18.216;2023-04-03T06:34:09;18.10;;;7.50;;
57295;SDS011;43146;50.976;18.216;2023-04-03T06:36:37;14.40;;;6.00;;
57295;SDS011;43146;50.976;18.216;2023-04-03T06:39:02;16.60;;;6.20;;
57295;SDS011;43146;50.976;18.216;2023-04-03T06:41:28;16.60;;;6.40;;
57295;SDS011;43146;50.976;18.216;2023-04-03T06:43:54;14.70;;;5.90;;
57295;SDS011;43146;50.976;18.216;2023-04-03T06:46:22;17.10;;;6.50;;
57295;SDS011;43146;50.976;18.216;2023-04-03T06:48:48;15.10;;;6.00;;
57295;SDS011;43146;50.976;18.216;2023-04-03T06:51:18;16.60;;;6.30;;
57295;SDS011;43146;50.976;18.216;2023-04-03T06:53:46;16.50;;;6.70;;
57295;SDS011;43146;50.976;18.216;2023-04-03T06:56:12;16.30;;;5.80;;
57295;SDS011;43146;50.976;18.216;2023-04-03T06:58:39;16.10;;;6.10;;
57295;SDS011;43146;50.976;18.216;2023-04-03T07:01:05;12.50;;;5.20;;
57295;SDS011;43146;50.976;18.216;2023-04-03T07:03:31;15.90;;;5.40;;
57295;SDS011;43146;50.976;18.216;2023-04-03T07:05:57;15.20;;;5.90;;
57295;SDS011;43146;50.976;18.216;2023-04-03T07:08:23;14.40;;;5.70;;
57295;SDS011;43146;50.976;18.216;2023-04-03T07:10:50;15.50;;;5.10;;
57295;SDS011;43146;50.976;18.216;2023-04-03T07:13:16;14.10;;;5.70;;
57295;SDS011;43146;50.976;18.216;2023-04-03T07:15:42;14.70;;;5.30;;
57295;SDS011;43146;50.976;18.216;2023-04-03T07:18:07;13.70;;;5.30;;
57295;SDS011;43146;50.976;18.216;2023-04-03T07:20:33;14.30;;;5.20;;
57295;SDS011;43146;50.976;18.216;2023-04-03T07:22:59;14.90;;;6.10;;
57295;SDS011;43146;50.976;18.216;2023-04-03T07:25:27;13.90;;;5.60;;
57295;SDS011;43146;50.976;18.216;2023-04-03T07:27:53;17.50;;;7.40;;
57295;SDS011;43146;50.976;18.216;2023-04-03T07:30:20;14.40;;;5.00;;
57295;SDS011;43146;50.976;18.216;2023-04-03T07:32:46;17.70;;;7.40;;
57295;SDS011;43146;50.976;18.216;2023-04-03T07:35:12;16.20;;;7.20;;
57295;SDS011;43146;50.976;18.216;2023-04-03T07:37:38;13.70;;;5.10;;
57295;SDS011;43146;50.976;18.216;2023-04-03T07:40:04;14.90;;;4.90;;
57295;SDS011;43146;50.976;18.216;2023-04-03T07:42:31;14.90;;;5.70;;
57295;SDS011;43146;50.976;18.216;2023-04-03T07:44:57;18.20;;;6.90;;
57295;SDS011;43146;50.976;18.216;2023-04-03T07:47:23;22.40;;;7.90;;
57295;SDS011;43146;50.976;18.216;2023-04-03T07:49:49;15.30;;;5.60;;
57295;SDS011;43146;50.976;18.216;2023-04-03T07:52:15;23.90;;;9.30;;
57295;SDS011;43146;50.976;18.216;2023-04-03T07:54:41;31.40;;;11.80;;
57295;SDS011;43146;50.976;18.216;2023-04-03T07:57:07;18.60;;;5.90;;
57295;SDS011;43146;50.976;18.216;2023-04-03T07:59:33;12.40;;;4.00;;
57295;SDS011;43146;50.976;18.216;2023-04-03T08:01:58;20.90;;;7.80;;
57295;SDS011;43146;50.976;18.216;2023-04-03T08:04:24;22.80;;;6.80;;
57295;SDS011;43146;50.976;18.216;2023-04-03T08:06:51;13.60;;;3.90;;
57295;SDS011;43146;50.976;18.216;2023-04-03T08:09:17;13.50;;;4.10;;
57295;SDS011;43146;50.976;18.216;2023-04-03T08:11:44;22.30;;;7.50;;
57295;SDS011;43146;50.976;18.216;2023-04-03T08:14:11;24.30;;;9.00;;
57295;SDS011;43146;50.976;18.216;2023-04-03T08:16:42;23.20;;;7.10;;
57295;SDS011;43146;50.976;18.216;2023-04-03T08:19:08;9.90;;;3.70;;
57295;SDS011;43146;50.976;18.216;2023-04-03T08:21:36;10.40;;;3.50;;
57295;SDS011;43146;50.976;18.216;2023-04-03T08:24:02;12.20;;;4.30;;
57295;SDS011;43146;50.976;18.216;2023-04-03T08:26:29;16.90;;;5.70;;
57295;SDS011;43146;50.976;18.216;2023-04-03T08:28:55;11.80;;;3.90;;
57295;SDS011;43146;50.976;18.216;2023-04-03T08:31:20;11.60;;;3.60;;
57295;SDS011;43146;50.976;18.216;2023-04-03T08:33:46;11.20;;;3.60;;
57295;SDS011;43146;50.976;18.216;2023-04-03T08:36:30;13.30;;;3.90;;
57295;SDS011;43146;50.976;18.216;2023-04-03T08:38:56;9.90;;;3.20;;
57295;SDS011;43146;50.976;18.216;2023-04-03T08:49:12;10.20;;;3.10;;
57295;SDS011;43146;50.976;18.216;2023-04-03T08:51:47;9.90;;;3.60;;
57295;SDS011;43146;50.976;18.216;2023-04-03T08:54:22;7.30;;;2.70;;
57295;SDS011;43146;50.976;18.216;2023-04-03T08:56:54;10.30;;;3.30;;
57295;SDS011;43146;50.976;18.216;2023-04-03T08:59:24;11.70;;;2.90;;
57295;SDS011;43146;50.976;18.216;2023-04-03T09:01:53;8.90;;;2.60;;
57295;SDS011;43146;50.976;18.216;2023-04-03T09:04:19;10.50;;;3.40;;
57295;SDS011;43146;50.976;18.216;2023-04-03T09:06:46;8.90;;;3.30;;
57295;SDS011;43146;50.976;18.216;2023-04-03T09:14:43;10.50;;;3.20;;
57295;SDS011;43146;50.976;18.216;2023-04-03T09:20:24;8.70;;;3.20;;
57295;SDS011;43146;50.976;18.216;2023-04-03T09:22:56;10.40;;;3.60;;
57295;SDS011;43146;50.976;18.216;2023-04-03T09:25:23;12.30;;;3.60;;
57295;SDS011;43146;50.976;18.216;2023-04-03T09:27:51;8.50;;;2.90;;
57295;SDS011;43146;50.976;18.216;2023-04-03T09:30:19;9.60;;;3.30;;
57295;SDS011;43146;50.976;18.216;2023-04-03T09:32:48;9.10;;;2.80;;
57295;SDS011;43146;50.976;18.216;2023-04-03T09:35:17;9.10;;;3.00;;
57295;SDS011;43146;50.976;18.216;2023-04-03T09:37:47;9.60;;;3.30;;
57295;SDS011;43146;50.976;18.216;2023-04-03T09:42:59;11.20;;;3.50;;
57295;SDS011;43146;50.976;18.216;2023-04-03T09:50:59;9.20;;;3.10;;
57295;SDS011;43146;50.976;18.216;2023-04-03T09:53:28;12.80;;;3.80;;
57295;SDS011;43146;50.976;18.216;2023-04-03T09:55:55;11.10;;;3.90;;
57295;SDS011;43146;50.976;18.216;2023-04-03T09:58:29;10.70;;;3.60;;
57295;SDS011;43146;50.976;18.216;2023-04-03T10:01:06;11.10;;;3.40;;
57295;SDS011;43146;50.976;18.216;2023-04-03T10:03:35;15.10;;;5.10;;
57295;SDS011;43146;50.976;18.216;2023-04-03T10:06:03;10.80;;;3.40;;
57295;SDS011;43146;50.976;18.216;2023-04-03T10:08:33;14.60;;;4.10;;
57295;SDS011;43146;50.976;18.216;2023-04-03T10:11:07;11.50;;;4.90;;
57295;SDS011;43146;50.976;18.216;2023-04-03T10:13:35;12.70;;;4.70;;
57295;SDS011;43146;50.976;18.216;2023-04-03T10:16:11;9.70;;;4.10;;
57295;SDS011;43146;50.976;18.216;2023-04-03T10:18:41;12.60;;;4.40;;
57295;SDS011;43146;50.976;18.216;2023-04-03T10:21:15;9.50;;;3.70;;
57295;SDS011;43146;50.976;18.216;2023-04-03T10:35:02;10.10;;;3.50;;
57295;SDS011;43146;50.976;18.216;2023-04-03T10:37:58;9.00;;;3.60;;
57295;SDS011;43146;50.976;18.216;2023-04-03T10:43:13;11.10;;;3.20;;
57295;SDS011;43146;50.976;18.216;2023-04-03T10:46:17;9.80;;;3.80;;
57295;SDS011;43146;50.976;18.216;2023-04-03T10:48:55;18.20;;;5.60;;
57295;SDS011;43146;50.976;18.216;2023-04-03T10:54:11;9.70;;;3.30;;
57295;SDS011;43146;50.976;18.216;2023-04-03T10:56:56;11.00;;;3.50;;
57295;SDS011;43146;50.976;18.216;2023-04-03T10:59:28;11.10;;;2.80;;
57295;SDS011;43146;50.976;18.216;2023-04-03T11:02:01;7.80;;;2.80;;
57295;SDS011;43146;50.976;18.216;2023-04-03T11:04:34;11.10;;;4.10;;
57295;SDS011;43146;50.976;18.216;2023-04-03T11:07:04;8.40;;;2.90;;
57295;SDS011;43146;50.976;18.216;2023-04-03T11:09:37;9.20;;;3.70;;
57295;SDS011;43146;50.976;18.216;2023-04-03T11:14:56;11.50;;;3.70;;
57295;SDS011;43146;50.976;18.216;2023-04-03T11:22:43;11.20;;;4.00;;
57295;SDS011;43146;50.976;18.216;2023-04-03T11:28:00;13.10;;;4.90;;
57295;SDS011;43146;50.976;18.216;2023-04-03T11:30:44;11.00;;;4.00;;
57295;SDS011;43146;50.976;18.216;2023-04-03T11:36:07;10.30;;;3.90;;
57295;SDS011;43146;50.976;18.216;2023-04-03T11:38:56;10.90;;;3.70;;
57295;SDS011;43146;50.976;18.216;2023-04-03T11:41:25;12.30;;;4.50;;
57295;SDS011;43146;50.976;18.216;2023-04-03T11:52:01;10.60;;;4.30;;
57295;SDS011;43146;50.976;18.216;2023-04-03T12:13:36;11.70;;;4.60;;
57295;SDS011;43146;50.976;18.216;2023-04-03T12:16:05;12.60;;;4.50;;
57295;SDS011;43146;50.976;18.216;2023-04-03T12:29:13;10.50;;;4.30;;
57295;SDS011;43146;50.976;18.216;2023-04-03T12:40:21;11.20;;;3.90;;
57295;SDS011;43146;50.976;18.216;2023-04-03T12:48:31;10.80;;;3.60;;
57295;SDS011;43146;50.976;18.216;2023-04-03T12:50:59;9.40;;;3.60;;
57295;SDS011;43146;50.976;18.216;2023-04-03T12:53:31;13.80;;;4.50;;
57295;SDS011;43146;50.976;18.216;2023-04-03T12:58:46;12.10;;;4.00;;
57295;SDS011;43146;50.976;18.216;2023-04-03T13:01:13;12.00;;;4.10;;
57295;SDS011;43146;50.976;18.216;2023-04-03T13:03:55;10.80;;;3.80;;
57295;SDS011;43146;50.976;18.216;2023-04-03T13:09:00;12.30;;;4.60;;
57295;SDS011;43146;50.976;18.216;2023-04-03T13:11:27;13.60;;;4.70;;
57295;SDS011;43146;50.976;18.216;2023-04-03T13:14:19;9.40;;;3.80;;
57295;SDS011;43146;50.976;18.216;2023-04-03T13:17:03;10.00;;;4.10;;
57295;SDS011;43146;50.976;18.216;2023-04-03T13:19:32;9.40;;;3.60;;
57295;SDS011;43146;50.976;18.216;2023-04-03T13:22:02;10.50;;;4.00;;
57295;SDS011;43146;50.976;18.216;2023-04-03T13:26:58;11.50;;;4.40;;
57295;SDS011;43146;50.976;18.216;2023-04-03T13:29:29;14.40;;;6.30;;
57295;SDS011;43146;50.976;18.216;2023-04-03T13:31:58;18.90;;;6.10;;
57295;SDS011;43146;50.976;18.216;2023-04-03T13:34:26;14.40;;;5.60;;
57295;SDS011;43146;50.976;18.216;2023-04-03T13:36:55;11.00;;;3.90;;
57295;SDS011;43146;50.976;18.216;2023-04-03T13:39:27;10.50;;;3.70;;
57295;SDS011;43146;50.976;18.216;2023-04-03T13:41:56;10.50;;;4.20;;
57295;SDS011;43146;50.976;18.216;2023-04-03T13:44:29;9.80;;;3.80;;
57295;SDS011;43146;50.976;18.216;2023-04-03T13:47:00;13.40;;;5.30;;
57295;SDS011;43146;50.976;18.216;2023-04-03T13:49:41;12.50;;;4.30;;
57295;SDS011;43146;50.976;18.216;2023-04-03T13:54:54;13.60;;;5.10;;
57295;SDS011;43146;50.976;18.216;2023-04-03T13:57:22;11.20;;;4.00;;
57295;SDS011;43146;50.976;18.216;2023-04-03T13:59:49;10.50;;;3.70;;
57295;SDS011;43146;50.976;18.216;2023-04-03T14:02:48;11.40;;;4.00;;
57295;SDS011;43146;50.976;18.216;2023-04-03T14:05:07;10.60;;;3.60;;
57295;SDS011;43146;50.976;18.216;2023-04-03T14:07:34;9.90;;;3.90;;
57295;SDS011;43146;50.976;18.216;2023-04-03T14:10:00;14.10;;;4.20;;
57295;SDS011;43146;50.976;18.216;2023-04-03T14:12:36;9.90;;;3.70;;
57295;SDS011;43146;50.976;18.216;2023-04-03T14:15:45;10.70;;;3.60;;
57295;SDS011;43146;50.976;18.216;2023-04-03T14:17:53;9.80;;;3.60;;
57295;SDS011;43146;50.976;18.216;2023-04-03T14:20:22;9.70;;;3.30;;
57295;SDS011;43146;50.976;18.216;2023-04-03T14:22:50;11.30;;;3.90;;
57295;SDS011;43146;50.976;18.216;2023-04-03T14:25:17;11.30;;;4.20;;
57295;SDS011;43146;50.976;18.216;2023-04-03T14:27:45;11.60;;;3.60;;
57295;SDS011;43146;50.976;18.216;2023-04-03T14:30:14;9.90;;;3.40;;
57295;SDS011;43146;50.976;18.216;2023-04-03T14:32:46;8.20;;;2.90;;
57295;SDS011;43146;50.976;18.216;2023-04-03T14:35:12;9.90;;;3.80;;
57295;SDS011;43146;50.976;18.216;2023-04-03T14:37:39;13.70;;;3.50;;
57295;SDS011;43146;50.976;18.216;2023-04-03T14:40:05;11.50;;;3.40;;
57295;SDS011;43146;50.976;18.216;2023-04-03T14:42:33;8.60;;;3.50;;
57295;SDS011;43146;50.976;18.216;2023-04-03T14:45:01;10.20;;;4.30;;
57295;SDS011;43146;50.976;18.216;2023-04-03T14:47:29;12.50;;;5.40;;
57295;SDS011;43146;50.976;18.216;2023-04-03T14:49:55;8.80;;;3.20;;
57295;SDS011;43146;50.976;18.216;2023-04-03T14:52:26;14.20;;;5.00;;
57295;SDS011;43146;50.976;18.216;2023-04-03T14:54:55;10.70;;;3.80;;
57295;SDS011;43146;50.976;18.216;2023-04-03T14:57:21;10.20;;;3.50;;
57295;SDS011;43146;50.976;18.216;2023-04-03T14:59:50;10.40;;;3.60;;
57295;SDS011;43146;50.976;18.216;2023-04-03T15:02:35;9.00;;;3.40;;
57295;SDS011;43146;50.976;18.216;2023-04-03T15:05:03;10.00;;;3.50;;
57295;SDS011;43146;50.976;18.216;2023-04-03T15:07:35;8.00;;;3.00;;
57295;SDS011;43146;50.976;18.216;2023-04-03T15:10:13;11.40;;;4.00;;
57295;SDS011;43146;50.976;18.216;2023-04-03T15:12:40;10.70;;;3.60;;
57295;SDS011;43146;50.976;18.216;2023-04-03T15:15:07;9.70;;;3.70;;
57295;SDS011;43146;50.976;18.216;2023-04-03T15:17:34;10.50;;;3.60;;
57295;SDS011;43146;50.976;18.216;2023-04-03T15:20:02;9.50;;;3.90;;
57295;SDS011;43146;50.976;18.216;2023-04-03T15:22:28;11.50;;;4.20;;
57295;SDS011;43146;50.976;18.216;2023-04-03T15:24:54;12.30;;;4.70;;
57295;SDS011;43146;50.976;18.216;2023-04-03T15:27:20;12.00;;;4.20;;
57295;SDS011;43146;50.976;18.216;2023-04-03T15:29:46;9.90;;;3.90;;
57295;SDS011;43146;50.976;18.216;2023-04-03T15:32:12;11.40;;;4.00;;
57295;SDS011;43146;50.976;18.216;2023-04-03T15:34:38;11.30;;;4.00;;
57295;SDS011;43146;50.976;18.216;2023-04-03T15:37:05;10.20;;;3.60;;
57295;SDS011;43146;50.976;18.216;2023-04-03T15:39:31;10.50;;;4.10;;
57295;SDS011;43146;50.976;18.216;2023-04-03T15:41:57;11.60;;;3.70;;
57295;SDS011;43146;50.976;18.216;2023-04-03T15:44:29;9.10;;;3.90;;
57295;SDS011;43146;50.976;18.216;2023-04-03T15:46:54;15.40;;;5.70;;
57295;SDS011;43146;50.976;18.216;2023-04-03T15:49:21;12.40;;;4.50;;
57295;SDS011;43146;50.976;18.216;2023-04-03T15:51:47;12.20;;;4.30;;
57295;SDS011;43146;50.976;18.216;2023-04-03T15:54:13;17.30;;;5.70;;
57295;SDS011;43146;50.976;18.216;2023-04-03T15:56:39;11.60;;;4.20;;
57295;SDS011;43146;50.976;18.216;2023-04-03T15:59:05;11.70;;;4.30;;
57295;SDS011;43146;50.976;18.216;2023-04-03T16:01:31;12.20;;;4.30;;
57295;SDS011;43146;50.976;18.216;2023-04-03T16:03:57;12.60;;;4.70;;
57295;SDS011;43146;50.976;18.216;2023-04-03T16:06:23;9.70;;;3.70;;
57295;SDS011;43146;50.976;18.216;2023-04-03T16:08:50;12.90;;;4.90;;
57295;SDS011;43146;50.976;18.216;2023-04-03T16:11:16;10.50;;;4.00;;
57295;SDS011;43146;50.976;18.216;2023-04-03T16:13:42;11.10;;;4.10;;
57295;SDS011;43146;50.976;18.216;2023-04-03T16:16:07;9.70;;;4.00;;
57295;SDS011;43146;50.976;18.216;2023-04-03T16:18:34;12.20;;;5.10;;
57295;SDS011;43146;50.976;18.216;2023-04-03T16:21:00;14.00;;;5.20;;
57295;SDS011;43146;50.976;18.216;2023-04-03T16:23:26;14.70;;;6.70;;
57295;SDS011;43146;50.976;18.216;2023-04-03T16:25:52;12.40;;;5.10;;
57295;SDS011;43146;50.976;18.216;2023-04-03T16:28:18;11.70;;;4.80;;
57295;SDS011;43146;50.976;18.216;2023-04-03T16:30:44;12.80;;;5.20;;
57295;SDS011;43146;50.976;18.216;2023-04-03T16:33:11;13.00;;;4.70;;
57295;SDS011;43146;50.976;18.216;2023-04-03T16:35:37;13.70;;;5.20;;
57295;SDS011;43146;50.976;18.216;2023-04-03T16:38:03;12.70;;;5.10;;